createdAt,value
2022-08-19T00:00:26.056Z,54.54
2022-08-19T00:01:31.391Z,54.63
2022-08-19T00:02:33.532Z,54.19
2022-08-19T00:03:35.927Z,54.25
2022-08-19T00:04:41.353Z,54.44
2022-08-19T00:05:51.324Z,54.41
2022-08-19T00:06:53.693Z,54.33
2022-08-19T00:07:57.997Z,54.45
2022-08-19T00:09:01.688Z,54.01
2022-08-19T00:10:06.203Z,54.03
2022-08-19T00:11:09.321Z,54.20
2022-08-19T00:12:21.052Z,53.39
2022-08-19T00:13:23.215Z,53.76
2022-08-19T00:14:27.428Z,53.90
2022-08-19T00:15:29.727Z,53.91
2022-08-19T00:16:32.287Z,54.08
2022-08-19T00:17:34.564Z,53.60
2022-08-19T00:18:37.492Z,54.23
2022-08-19T00:19:40.192Z,54.07
2022-08-19T00:20:43.237Z,54.06
2022-08-19T00:21:45.575Z,54.08
2022-08-19T00:22:51.122Z,53.80
2022-08-19T00:23:54.460Z,53.81
2022-08-19T00:24:56.733Z,53.78
2022-08-19T00:25:59.695Z,53.67
2022-08-19T00:27:25.152Z,53.87
2022-08-19T00:28:28.171Z,53.83
2022-08-19T00:29:34.510Z,53.81
2022-08-19T00:30:37.296Z,53.81
2022-08-19T00:31:40.459Z,53.78
2022-08-19T00:32:43.311Z,53.74
2022-08-19T00:33:59.070Z,53.73
2022-08-19T00:35:01.904Z,53.95
2022-08-19T00:36:08.469Z,53.78
2022-08-19T00:37:11.147Z,53.92
2022-08-19T00:38:13.404Z,53.86
2022-08-19T00:39:17.365Z,53.93
2022-08-19T00:40:20.513Z,54.16
2022-08-19T00:41:24.783Z,54.13
2022-08-19T00:42:29.682Z,54.35
2022-08-19T00:43:32.091Z,54.27
2022-08-19T00:44:37.614Z,54.22
2022-08-19T00:45:42.705Z,54.23
2022-08-19T00:46:55.540Z,54.16
2022-08-19T00:48:04.680Z,54.16
2022-08-19T00:49:15.841Z,54.27
2022-08-19T00:50:21.037Z,54.07
2022-08-19T00:51:24.753Z,54.18
2022-08-19T00:52:36.330Z,54.29
2022-08-19T00:53:39.105Z,54.64
2022-08-19T00:54:42.867Z,54.67
2022-08-19T00:55:49.112Z,54.59
2022-08-19T00:56:55.207Z,54.59
2022-08-19T00:58:03.697Z,54.59
2022-08-19T00:59:10.205Z,54.20
2022-08-19T01:00:18.009Z,54.33
2022-08-19T01:01:20.217Z,54.67
2022-08-19T01:02:22.793Z,54.59
2022-08-19T01:03:25.335Z,54.91
2022-08-19T01:04:28.672Z,54.89
2022-08-19T01:05:31.060Z,54.80
2022-08-19T01:06:34.548Z,54.77
2022-08-19T01:07:38.825Z,54.94
2022-08-19T01:08:44.008Z,55.14
2022-08-19T01:09:46.282Z,54.95
2022-08-19T01:11:07.837Z,55.33
2022-08-19T01:12:13.929Z,55.18
2022-08-19T01:13:20.389Z,55.34
2022-08-19T01:14:22.766Z,55.62
2022-08-19T01:15:31.146Z,55.50
2022-08-19T01:16:35.030Z,55.44
2022-08-19T01:17:40.834Z,55.82
2022-08-19T01:18:45.307Z,55.73
2022-08-19T01:19:50.204Z,55.87
2022-08-19T01:20:55.512Z,56.04
2022-08-19T01:22:51.098Z,55.97
2022-08-19T01:23:54.165Z,56.30
2022-08-19T01:24:57.037Z,56.30
2022-08-19T01:25:59.180Z,56.20
2022-08-19T01:27:04.925Z,56.50
2022-08-19T01:28:33.869Z,56.38
2022-08-19T01:29:42.134Z,56.50
2022-08-19T01:30:51.048Z,56.59
2022-08-19T01:31:53.976Z,56.44
2022-08-19T01:33:04.251Z,56.38
2022-08-19T01:34:07.583Z,56.33
2022-08-19T01:35:12.556Z,56.84
2022-08-19T01:36:24.211Z,56.60
2022-08-19T01:37:27.350Z,56.81
2022-08-19T01:38:31.874Z,56.60
2022-08-19T01:39:35.908Z,56.82
2022-08-19T01:40:41.205Z,56.85
2022-08-19T01:41:44.309Z,57.10
2022-08-19T01:42:46.624Z,56.84
2022-08-19T01:44:21.176Z,56.73
2022-08-19T01:45:26.682Z,56.68
2022-08-19T01:48:02.752Z,56.83
2022-08-19T01:49:35.048Z,56.71
2022-08-19T01:50:38.012Z,56.82
2022-08-19T01:51:40.679Z,56.86
2022-08-19T01:52:45.605Z,56.97
2022-08-19T01:54:40.229Z,56.87
2022-08-19T01:55:43.920Z,56.84
2022-08-19T01:56:52.449Z,57.00
2022-08-19T01:57:59.979Z,56.98
2022-08-19T01:59:08.771Z,56.64
2022-08-19T02:00:17.190Z,56.85
2022-08-19T02:01:21.434Z,56.81
2022-08-19T02:02:54.869Z,57.13
2022-08-19T02:03:59.005Z,56.96
2022-08-19T02:05:02.121Z,56.89
2022-08-19T02:06:06.792Z,57.27
2022-08-19T02:07:46.593Z,57.41
2022-08-19T02:10:47.199Z,57.96
2022-08-19T02:26:38.358Z,57.75
2022-08-19T02:28:40.977Z,57.64
2022-08-19T02:29:51.377Z,57.79
2022-08-19T02:30:55.427Z,57.19
2022-08-19T02:31:57.782Z,57.62
2022-08-19T02:33:01.230Z,57.43
2022-08-19T02:34:04.999Z,57.68
2022-08-19T03:13:36.019Z,59.00
2022-08-19T03:15:20.404Z,59.06
2022-08-19T03:17:00.098Z,58.78
2022-08-19T03:18:09.168Z,59.15
2022-08-19T03:19:20.260Z,58.84
2022-08-19T03:20:27.207Z,58.75
2022-08-19T03:21:46.283Z,58.69
2022-08-19T03:22:51.380Z,58.84
2022-08-19T03:24:01.929Z,58.71
2022-08-19T03:25:07.173Z,58.56
2022-08-19T03:26:15.805Z,58.47
2022-08-19T03:27:43.631Z,58.26
2022-08-19T03:28:58.437Z,58.49
2022-08-19T03:30:20.497Z,58.60
2022-08-19T03:31:43.663Z,58.51
2022-08-19T03:32:57.100Z,58.32
2022-08-19T03:34:01.054Z,58.19
2022-08-19T03:35:03.556Z,58.12
2022-08-19T03:36:26.506Z,58.36
2022-08-19T03:37:31.530Z,58.34
2022-08-19T03:38:36.035Z,58.86
2022-08-19T03:42:48.505Z,58.95
2022-08-19T03:43:53.345Z,58.82
2022-08-19T03:45:05.111Z,58.67
2022-08-19T03:46:13.718Z,58.86
2022-08-19T03:47:17.983Z,59.09
2022-08-19T03:48:20.226Z,58.67
2022-08-19T03:49:27.188Z,58.98
2022-08-19T03:50:44.168Z,58.72
2022-08-19T03:51:48.407Z,58.60
2022-08-19T03:52:53.135Z,58.63
2022-08-19T03:53:57.332Z,59.29
2022-08-19T03:54:59.894Z,59.02
2022-08-19T03:56:04.260Z,59.30
2022-08-19T03:57:31.846Z,58.83
2022-08-19T03:58:34.993Z,59.14
2022-08-19T03:59:39.522Z,59.18
2022-08-19T04:00:44.081Z,58.34
2022-08-19T04:01:46.901Z,58.23
2022-08-19T04:02:58.046Z,58.02
2022-08-19T04:04:04.929Z,57.91
2022-08-19T04:05:09.550Z,57.65
2022-08-19T04:06:14.042Z,56.51
2022-08-19T04:07:17.313Z,56.09
2022-08-19T04:08:21.762Z,55.76
2022-08-19T04:09:24.265Z,55.13
2022-08-19T04:10:28.805Z,55.16
2022-08-19T04:11:44.617Z,54.96
2022-08-19T04:12:47.718Z,54.62
2022-08-19T04:13:54.269Z,54.66
2022-08-19T04:14:56.351Z,53.87
2022-08-19T04:15:58.462Z,54.23
2022-08-19T04:17:02.916Z,53.86
2022-08-19T04:18:07.291Z,54.13
2022-08-19T04:19:13.843Z,54.04
2022-08-19T04:20:20.508Z,53.04
2022-08-19T04:21:25.922Z,52.21
2022-08-19T04:22:28.146Z,50.90
2022-08-19T04:23:31.895Z,50.05
2022-08-19T04:24:35.979Z,49.55
2022-08-19T04:25:47.099Z,48.41
2022-08-19T04:26:50.443Z,48.50
2022-08-19T04:27:55.550Z,48.42
2022-08-19T04:28:57.873Z,47.50
2022-08-19T04:30:00.273Z,46.41
2022-08-19T04:31:02.446Z,46.32
2022-08-19T04:32:09.061Z,45.97
2022-08-19T04:33:13.437Z,46.13
2022-08-19T04:34:18.433Z,45.15
2022-08-19T04:35:24.475Z,44.31
2022-08-19T04:36:30.823Z,43.52
2022-08-19T04:37:35.302Z,42.58
2022-08-19T04:38:38.083Z,41.43
2022-08-19T04:40:02.246Z,39.69
2022-08-19T04:41:23.565Z,39.79
2022-08-19T04:42:40.830Z,38.62
2022-08-19T04:43:46.195Z,37.81
2022-08-19T04:44:48.292Z,37.73
2022-08-19T04:45:50.539Z,38.58
2022-08-19T04:46:59.008Z,38.25
2022-08-19T04:48:26.241Z,38.13
2022-08-19T04:49:26.774Z,37.90
2022-08-19T04:50:28.836Z,37.08
2022-08-19T04:51:34.737Z,39.32
2022-08-19T04:52:36.815Z,40.42
2022-08-19T04:53:42.809Z,40.01
2022-08-19T04:54:45.346Z,40.64
2022-08-19T04:55:49.251Z,42.16
2022-08-19T04:56:53.125Z,42.91
2022-08-19T04:57:56.231Z,43.86
2022-08-19T04:58:58.785Z,44.96
2022-08-19T05:00:01.123Z,45.12
2022-08-19T05:01:06.474Z,45.88
2022-08-19T05:02:10.766Z,45.95
2022-08-19T05:03:18.204Z,47.06
2022-08-19T05:04:22.717Z,47.26
2022-08-19T05:05:24.976Z,47.30
2022-08-19T05:06:27.749Z,46.83
2022-08-19T05:07:32.336Z,47.23
2022-08-19T05:08:37.055Z,47.52
2022-08-19T05:09:57.907Z,47.46
2022-08-19T05:11:01.016Z,47.43
2022-08-19T05:12:03.413Z,46.45
2022-08-19T05:13:06.843Z,46.96
2022-08-19T05:14:11.202Z,46.77
2022-08-19T05:15:13.833Z,46.78
2022-08-19T05:16:18.445Z,46.46
2022-08-19T05:17:29.622Z,46.80
2022-08-19T05:18:52.156Z,47.36
2022-08-19T05:20:15.406Z,46.51
2022-08-19T05:21:39.141Z,47.07
2022-08-19T05:22:43.076Z,46.49
2022-08-19T05:23:45.648Z,46.02
2022-08-19T05:25:11.233Z,45.97
2022-08-19T05:26:12.150Z,45.87
2022-08-19T05:27:14.954Z,45.36
2022-08-19T05:28:17.663Z,44.96
2022-08-19T05:29:27.767Z,44.91
2022-08-19T05:30:47.315Z,43.63
2022-08-19T05:31:50.758Z,42.17
2022-08-19T05:32:57.087Z,41.64
2022-08-19T05:34:05.213Z,42.38
2022-08-19T05:35:20.305Z,41.58
2022-08-19T05:36:22.706Z,42.12
2022-08-19T05:37:28.140Z,42.09
2022-08-19T05:38:31.286Z,42.67
2022-08-19T05:39:36.789Z,43.00
2022-08-19T05:40:40.911Z,42.65
2022-08-19T05:41:54.679Z,42.53
2022-08-19T05:42:57.134Z,42.39
2022-08-19T05:44:02.027Z,41.66
2022-08-19T05:45:05.584Z,41.66
2022-08-19T05:46:10.035Z,40.95
2022-08-19T05:47:14.450Z,40.89
2022-08-19T05:48:21.818Z,40.16
2022-08-19T05:49:24.390Z,40.16
2022-08-19T05:50:29.726Z,40.62
2022-08-19T05:51:32.663Z,39.46
2022-08-19T05:52:37.248Z,39.82
2022-08-19T05:53:39.812Z,40.22
2022-08-19T05:54:44.593Z,40.27
2022-08-19T05:55:47.201Z,40.56
2022-08-19T05:56:49.356Z,40.44
2022-08-19T05:57:51.537Z,40.14
2022-08-19T05:58:55.304Z,40.58
2022-08-19T06:00:02.974Z,40.08
2022-08-19T06:01:17.586Z,39.20
2022-08-19T06:02:20.610Z,38.13
2022-08-19T06:03:22.987Z,37.49
2022-08-19T06:04:25.550Z,37.66
2022-08-19T06:05:33.621Z,37.25
2022-08-19T06:06:52.784Z,38.08
2022-08-19T06:08:02.865Z,37.09
2022-08-19T06:09:07.684Z,38.79
2022-08-19T06:10:12.504Z,38.50
2022-08-19T06:11:17.919Z,38.27
2022-08-19T06:12:20.557Z,37.30
2022-08-19T06:13:24.017Z,36.37
2022-08-19T06:14:29.213Z,37.28
2022-08-19T06:15:34.525Z,37.17
2022-08-19T06:16:40.072Z,37.66
2022-08-19T06:17:45.460Z,37.13
2022-08-19T06:18:48.001Z,38.33
2022-08-19T06:19:52.432Z,38.59
2022-08-19T06:20:56.180Z,39.08
2022-08-19T06:22:00.701Z,39.37
2022-08-19T06:23:04.878Z,40.32
2022-08-19T06:24:11.010Z,41.19
2022-08-19T06:25:14.974Z,40.97
2022-08-19T06:26:17.684Z,40.85
2022-08-19T06:27:21.283Z,40.84
2022-08-19T06:28:24.845Z,41.12
2022-08-19T06:29:28.585Z,41.57
2022-08-19T06:30:30.759Z,41.39
2022-08-19T06:31:34.933Z,42.33
2022-08-19T06:32:39.895Z,42.13
2022-08-19T06:33:46.442Z,42.19
2022-08-19T06:34:48.709Z,42.46
2022-08-19T06:35:50.753Z,42.36
2022-08-19T06:36:53.534Z,42.51
2022-08-19T06:37:55.842Z,42.64
2022-08-19T06:39:00.368Z,42.54
2022-08-19T06:40:02.524Z,43.05
2022-08-19T06:41:07.805Z,42.31
2022-08-19T06:42:14.422Z,43.54
2022-08-19T06:43:18.529Z,43.63
2022-08-19T06:44:23.536Z,44.25
2022-08-19T06:45:35.698Z,44.28
2022-08-19T06:46:42.583Z,44.73
2022-08-19T06:47:47.224Z,45.22
2022-08-19T06:48:50.959Z,44.73
2022-08-19T06:50:01.204Z,45.08
2022-08-19T06:51:08.588Z,44.74
2022-08-19T06:52:15.537Z,45.26
2022-08-19T06:53:24.934Z,45.02
2022-08-19T06:54:30.917Z,44.91
2022-08-19T06:55:33.391Z,44.73
2022-08-19T06:56:36.095Z,44.73
2022-08-19T06:57:38.515Z,44.60
2022-08-19T06:58:40.685Z,44.56
2022-08-19T06:59:42.893Z,44.48
2022-08-19T07:00:45.103Z,44.21
2022-08-19T07:01:53.800Z,44.17
2022-08-19T07:03:00.047Z,44.17
2022-08-19T07:04:03.555Z,43.52
2022-08-19T07:05:06.931Z,43.47
2022-08-19T07:06:21.304Z,43.21
2022-08-19T07:07:35.820Z,43.27
2022-08-19T07:09:45.144Z,43.31
2022-08-19T07:10:57.460Z,43.24
2022-08-19T07:11:59.807Z,43.09
2022-08-19T07:13:02.060Z,43.21
2022-08-19T07:14:05.311Z,43.54
2022-08-19T07:15:09.857Z,43.98
2022-08-19T07:16:15.735Z,43.86
2022-08-19T07:17:23.085Z,43.15
2022-08-19T07:18:25.202Z,42.82
2022-08-19T07:19:30.173Z,42.41
2022-08-19T07:20:33.932Z,42.80
2022-08-19T07:21:39.197Z,43.03
2022-08-19T07:22:41.802Z,42.66
2022-08-19T07:23:44.742Z,42.30
2022-08-19T07:24:51.498Z,42.12
2022-08-19T07:25:54.126Z,41.93
2022-08-19T07:27:01.721Z,41.89
2022-08-19T07:28:04.794Z,41.84
2022-08-19T07:29:07.765Z,41.14
2022-08-19T07:30:13.028Z,41.84
2022-08-19T07:31:22.739Z,41.63
2022-08-19T07:32:29.271Z,41.80
2022-08-19T07:33:33.956Z,41.38
2022-08-19T07:34:38.679Z,41.72
2022-08-19T07:35:42.418Z,41.42
2022-08-19T07:36:45.914Z,41.41
2022-08-19T07:37:50.330Z,41.60
2022-08-19T07:38:54.690Z,41.53
2022-08-19T07:39:57.081Z,41.39
2022-08-19T07:40:59.160Z,40.97
2022-08-19T07:42:05.149Z,41.70
2022-08-19T07:43:08.544Z,41.22
2022-08-19T07:44:14.458Z,40.52
2022-08-19T07:45:17.187Z,40.30
2022-08-19T07:46:23.830Z,39.98
2022-08-19T07:47:50.061Z,39.63
2022-08-19T07:48:50.360Z,39.09
2022-08-19T07:49:52.690Z,38.88
2022-08-19T07:50:58.126Z,38.33
2022-08-19T07:52:05.200Z,38.89
2022-08-19T07:53:07.352Z,39.25
2022-08-19T07:54:09.594Z,38.88
2022-08-19T07:55:40.504Z,38.39
2022-08-19T07:56:34.502Z,38.56
2022-08-19T07:57:37.058Z,38.01
2022-08-19T07:58:42.657Z,38.11
2022-08-19T07:59:45.017Z,37.04
2022-08-19T08:00:49.444Z,37.11
2022-08-19T08:01:55.049Z,36.94
2022-08-19T08:02:57.559Z,37.43
2022-08-19T08:04:18.666Z,37.60
2022-08-19T08:05:43.014Z,37.80
2022-08-19T08:07:04.373Z,37.95
2022-08-19T08:08:27.529Z,38.15
2022-08-19T08:09:35.192Z,38.20
2022-08-19T08:10:41.664Z,39.15
2022-08-19T08:12:01.986Z,38.64
2022-08-19T08:13:10.301Z,39.38
2022-08-19T08:14:29.412Z,39.59
2022-08-19T08:15:42.220Z,39.77
2022-08-19T08:16:46.951Z,39.98
2022-08-19T08:17:51.732Z,40.05
2022-08-19T08:18:54.194Z,40.18
2022-08-19T08:19:56.995Z,39.84
2022-08-19T08:20:59.552Z,39.75
2022-08-19T08:22:03.232Z,40.71
2022-08-19T08:23:23.492Z,40.51
2022-08-19T08:24:28.988Z,41.12
2022-08-19T08:25:34.317Z,40.78
2022-08-19T08:26:37.711Z,40.95
2022-08-19T08:27:42.349Z,40.89
2022-08-19T08:28:47.923Z,40.47
2022-08-19T08:29:51.665Z,40.53
2022-08-19T08:30:53.678Z,40.07
2022-08-19T08:31:59.743Z,40.40
2022-08-19T08:33:02.541Z,39.86
2022-08-19T08:34:05.150Z,38.95
2022-08-19T08:35:10.577Z,38.58
2022-08-19T08:36:16.908Z,37.39
2022-08-19T08:37:19.039Z,37.31
2022-08-19T08:38:21.164Z,37.18
2022-08-19T08:39:23.347Z,36.59
2022-08-19T08:40:46.780Z,36.10
2022-08-19T08:42:10.220Z,35.75
2022-08-19T08:43:32.437Z,35.41
2022-08-19T08:44:37.352Z,36.08
2022-08-19T08:46:04.441Z,36.28
2022-08-19T08:47:16.621Z,35.90
2022-08-19T08:48:54.638Z,35.89
2022-08-19T08:50:05.668Z,36.54
2022-08-19T08:51:20.207Z,36.65
2022-08-19T08:52:32.117Z,37.32
2022-08-19T08:53:40.500Z,36.47
2022-08-19T08:54:55.001Z,37.04
2022-08-19T08:55:57.856Z,37.17
2022-08-19T08:56:59.986Z,36.62
2022-08-19T08:58:07.087Z,36.99
2022-08-19T08:59:20.399Z,36.01
2022-08-19T09:00:30.610Z,36.27
2022-08-19T09:01:33.235Z,36.49
2022-08-19T09:02:35.845Z,36.26
2022-08-19T09:03:40.507Z,36.52
2022-08-19T09:04:45.501Z,36.50
2022-08-19T09:06:02.693Z,36.14
2022-08-19T09:07:35.984Z,36.94
2022-08-19T09:09:11.788Z,37.01
2022-08-19T09:10:35.943Z,37.34
2022-08-19T09:12:03.774Z,37.04
2022-08-19T09:13:43.791Z,36.56
2022-08-19T09:15:06.663Z,37.74
2022-08-19T09:16:16.214Z,38.02
2022-08-19T09:17:34.028Z,37.75
2022-08-19T09:18:43.270Z,38.54
2022-08-19T09:20:09.143Z,38.38
2022-08-19T09:21:11.762Z,38.59
2022-08-19T09:22:13.992Z,38.37
2022-08-19T09:23:27.579Z,37.62
2022-08-19T09:24:31.077Z,37.40
2022-08-19T09:25:35.581Z,36.86
2022-08-19T09:26:47.799Z,36.20
2022-08-19T09:28:02.588Z,35.46
2022-08-19T09:29:08.963Z,35.29
2022-08-19T09:30:19.752Z,31.51
2022-08-19T09:31:25.193Z,32.02
2022-08-19T09:32:28.688Z,32.64
2022-08-19T09:33:31.766Z,32.78
2022-08-19T09:34:37.901Z,32.99
2022-08-19T09:35:49.837Z,31.81
2022-08-19T09:36:59.328Z,32.11
2022-08-19T09:38:02.120Z,32.06
2022-08-19T09:39:16.051Z,32.91
2022-08-19T09:40:19.325Z,34.32
2022-08-19T09:41:24.984Z,34.43
2022-08-19T09:42:35.181Z,33.84
2022-08-19T09:43:44.561Z,33.85
2022-08-19T09:44:50.029Z,33.29
2022-08-19T09:45:53.830Z,33.98
2022-08-19T09:46:55.956Z,34.16
2022-08-19T09:47:58.687Z,34.00
2022-08-19T09:49:06.309Z,33.36
2022-08-19T09:50:12.143Z,33.23
2022-08-19T09:51:22.798Z,32.84
2022-08-19T09:52:25.614Z,32.47
2022-08-19T09:53:39.268Z,31.81
2022-08-19T09:54:44.204Z,30.04
2022-08-19T09:55:46.443Z,30.48
2022-08-19T09:56:48.894Z,30.13
2022-08-19T09:57:51.130Z,30.17
2022-08-19T09:58:53.282Z,30.19
2022-08-19T09:59:55.416Z,30.28
2022-08-19T10:00:59.682Z,30.25
2022-08-19T10:02:03.596Z,30.06
2022-08-19T10:03:12.859Z,29.92
2022-08-19T10:04:20.049Z,30.26
2022-08-19T10:05:43.097Z,30.28
2022-08-19T10:06:46.765Z,29.95
2022-08-19T10:07:49.385Z,29.78
2022-08-19T10:08:52.768Z,29.72
2022-08-19T10:09:57.814Z,29.43
2022-08-19T10:11:28.639Z,29.92
2022-08-19T10:12:23.264Z,29.72
2022-08-19T10:13:31.688Z,30.01
2022-08-19T10:14:35.076Z,30.26
2022-08-19T10:15:47.438Z,29.83
2022-08-19T10:16:52.192Z,29.24
2022-08-19T10:17:55.611Z,29.71
2022-08-19T10:18:58.911Z,29.93
2022-08-19T10:20:01.383Z,29.80
2022-08-19T10:21:09.700Z,29.04
2022-08-19T10:22:14.970Z,28.12
2022-08-19T10:23:18.006Z,27.86
2022-08-19T10:24:21.746Z,26.38
2022-08-19T10:25:24.269Z,26.76
2022-08-19T10:26:29.413Z,26.99
2022-08-19T10:27:32.295Z,27.33
2022-08-19T10:28:42.696Z,27.62
2022-08-19T10:29:49.141Z,27.52
2022-08-19T10:30:51.410Z,27.42
2022-08-19T10:32:00.280Z,27.28
2022-08-19T10:33:08.541Z,27.58
2022-08-19T10:34:27.067Z,27.25
2022-08-19T10:35:30.693Z,27.63
2022-08-19T10:36:54.362Z,27.68
2022-08-19T10:38:02.197Z,27.90
2022-08-19T10:39:09.081Z,27.30
2022-08-19T10:40:12.569Z,27.11
2022-08-19T10:41:17.754Z,27.62
2022-08-19T10:42:20.395Z,27.61
2022-08-19T10:43:22.707Z,27.52
2022-08-19T10:44:32.385Z,27.92
2022-08-19T10:45:34.956Z,27.89
2022-08-19T10:46:46.045Z,27.74
2022-08-19T10:47:50.417Z,28.11
2022-08-19T10:48:53.503Z,27.96
2022-08-19T10:50:15.119Z,28.47
2022-08-19T10:51:36.717Z,28.05
2022-08-19T10:52:50.935Z,27.83
2022-08-19T10:53:56.602Z,27.85
2022-08-19T10:55:29.263Z,28.01
2022-08-19T10:56:53.478Z,28.30
2022-08-19T10:58:02.935Z,28.26
2022-08-19T10:59:05.833Z,28.30
2022-08-19T11:00:08.871Z,28.34
2022-08-19T11:01:10.983Z,28.25
2022-08-19T11:02:14.075Z,28.25
2022-08-19T11:03:16.128Z,28.60
2022-08-19T11:04:20.352Z,28.76
2022-08-19T11:05:24.444Z,28.99
2022-08-19T11:06:26.818Z,29.23
2022-08-19T11:07:28.852Z,29.20
2022-08-19T11:08:32.035Z,28.97
2022-08-19T11:09:41.713Z,28.88
2022-08-19T11:10:43.936Z,28.98
2022-08-19T11:11:54.506Z,28.40
2022-08-19T11:12:57.557Z,28.38
2022-08-19T11:14:00.161Z,28.19
2022-08-19T11:15:02.767Z,28.60
2022-08-19T11:16:14.403Z,28.01
2022-08-19T11:17:19.727Z,28.00
2022-08-19T11:18:21.781Z,28.28
2022-08-19T11:19:25.010Z,28.10
2022-08-19T11:20:26.996Z,28.20
2022-08-19T11:21:34.313Z,28.48
2022-08-19T11:22:40.634Z,28.58
2022-08-19T11:23:45.219Z,28.69
2022-08-19T11:24:47.305Z,28.56
2022-08-19T11:25:50.788Z,28.42
2022-08-19T11:27:00.524Z,28.63
2022-08-19T11:28:02.609Z,28.83
2022-08-19T11:29:07.292Z,28.96
2022-08-19T11:30:13.144Z,29.00
2022-08-19T11:31:22.207Z,29.26
2022-08-19T11:32:27.447Z,29.41
2022-08-19T11:33:29.435Z,29.61
2022-08-19T11:34:32.071Z,30.08
2022-08-19T11:35:34.674Z,29.90
2022-08-19T11:36:39.840Z,29.85
2022-08-19T11:37:43.263Z,29.68
2022-08-19T11:38:49.553Z,29.74
2022-08-19T11:39:53.329Z,29.49
2022-08-19T11:40:58.379Z,29.46
2022-08-19T11:42:03.801Z,29.57
2022-08-19T11:43:05.982Z,29.69
2022-08-19T11:44:11.364Z,30.22
2022-08-19T11:45:15.093Z,30.37
2022-08-19T11:46:18.048Z,31.16
2022-08-19T11:47:21.102Z,31.50
2022-08-19T11:48:24.600Z,31.63
2022-08-19T11:49:27.505Z,31.61
2022-08-19T11:50:30.812Z,31.63
2022-08-19T11:51:33.168Z,32.08
2022-08-19T11:52:35.517Z,32.35
2022-08-19T11:53:38.813Z,32.31
2022-08-19T11:54:41.055Z,32.30
2022-08-19T11:55:44.167Z,32.89
2022-08-19T11:56:48.861Z,32.85
2022-08-19T11:57:51.018Z,32.94
2022-08-19T11:58:57.803Z,33.20
2022-08-19T11:59:59.989Z,33.34
2022-08-19T12:01:08.386Z,33.38
2022-08-19T12:02:11.883Z,33.49
2022-08-19T12:03:15.080Z,33.40
2022-08-19T12:04:17.316Z,33.47
2022-08-19T12:05:20.620Z,33.35
2022-08-19T12:06:29.786Z,33.60
2022-08-19T12:07:35.584Z,33.96
2022-08-19T12:08:37.724Z,34.11
2022-08-19T12:09:42.611Z,33.85
2022-08-19T12:10:46.558Z,34.14
2022-08-19T12:11:48.614Z,34.25
2022-08-19T12:12:58.886Z,34.19
2022-08-19T12:14:01.297Z,34.18
2022-08-19T12:15:03.823Z,34.11
2022-08-19T12:16:13.287Z,34.46
2022-08-19T12:17:15.275Z,34.46
2022-08-19T12:18:17.552Z,34.84
2022-08-19T12:19:22.164Z,34.96
2022-08-19T12:20:25.942Z,35.02
2022-08-19T12:21:31.851Z,34.56
2022-08-19T12:22:33.975Z,34.65
2022-08-19T12:23:38.659Z,34.62
2022-08-19T12:24:40.659Z,34.84
2022-08-19T12:25:51.231Z,34.77
2022-08-19T12:26:57.157Z,35.09
2022-08-19T12:28:05.947Z,34.92
2022-08-19T12:29:09.566Z,34.88
2022-08-19T12:30:14.389Z,34.85
2022-08-19T12:31:16.840Z,34.57
2022-08-19T12:32:21.248Z,34.72
2022-08-19T12:33:26.482Z,34.76
2022-08-19T12:34:31.301Z,34.75
2022-08-19T12:35:33.397Z,34.73
2022-08-19T12:36:35.721Z,34.86
2022-08-19T12:37:38.320Z,34.83
2022-08-19T12:38:45.141Z,34.76
2022-08-19T12:39:47.681Z,34.82
2022-08-19T12:40:50.795Z,34.74
2022-08-19T12:41:55.042Z,34.95
2022-08-19T12:42:57.462Z,34.80
2022-08-19T12:44:00.239Z,35.05
2022-08-19T12:45:03.267Z,34.88
2022-08-19T12:46:10.919Z,34.99
2022-08-19T12:47:19.642Z,35.40
2022-08-19T12:48:33.599Z,35.03
2022-08-19T12:49:54.005Z,35.15
2022-08-19T12:50:57.932Z,35.14
2022-08-19T12:52:01.454Z,34.97
2022-08-19T12:53:03.634Z,35.17
2022-08-19T12:54:06.200Z,35.05
2022-08-19T12:55:09.654Z,35.17
2022-08-19T12:56:15.516Z,34.92
2022-08-19T12:57:17.874Z,34.89
2022-08-19T12:58:22.275Z,34.79
2022-08-19T12:59:28.606Z,35.09
2022-08-19T13:00:33.836Z,35.16
2022-08-19T13:01:36.198Z,35.21
2022-08-19T13:02:40.532Z,35.24
2022-08-19T13:03:44.193Z,35.28
2022-08-19T13:04:46.803Z,35.42
2022-08-19T13:05:49.015Z,35.55
2022-08-19T13:06:52.070Z,35.41
2022-08-19T13:07:58.495Z,35.84
2022-08-19T13:09:00.616Z,35.47
2022-08-19T13:10:02.836Z,35.42
2022-08-19T13:11:15.842Z,35.29
2022-08-19T13:12:18.297Z,35.28
2022-08-19T13:13:20.505Z,35.45
2022-08-19T13:14:22.559Z,35.34
2022-08-19T13:15:25.052Z,35.42
2022-08-19T13:16:30.788Z,35.39
2022-08-19T13:17:34.803Z,35.64
2022-08-19T13:18:37.159Z,35.61
2022-08-19T13:19:41.182Z,35.49
2022-08-19T13:20:52.389Z,35.23
2022-08-19T13:22:00.132Z,35.23
2022-08-19T13:23:02.454Z,35.32
2022-08-19T13:24:07.381Z,35.47
2022-08-19T13:25:10.482Z,35.57
2022-08-19T13:26:15.903Z,35.66
2022-08-19T13:27:18.271Z,35.77
2022-08-19T13:28:20.441Z,35.72
2022-08-19T13:29:49.803Z,35.77
2022-08-19T13:31:10.417Z,35.55
2022-08-19T13:32:30.839Z,35.61
2022-08-19T13:33:34.777Z,35.59
2022-08-19T13:34:38.141Z,35.58
2022-08-19T13:36:01.520Z,35.64
2022-08-19T13:37:05.877Z,35.62
2022-08-19T13:38:11.990Z,35.67
2022-08-19T13:39:14.418Z,35.39
2022-08-19T13:40:20.134Z,35.82
2022-08-19T13:41:22.673Z,35.97
2022-08-19T13:42:25.126Z,35.93
2022-08-19T13:43:27.911Z,36.00
2022-08-19T13:44:30.574Z,36.16
2022-08-19T13:45:35.236Z,36.29
2022-08-19T13:46:37.427Z,36.05
2022-08-19T13:47:46.274Z,36.23
2022-08-19T13:48:51.846Z,36.40
2022-08-19T13:49:53.890Z,36.48
2022-08-19T13:50:58.307Z,36.01
2022-08-19T13:52:00.480Z,36.26
2022-08-19T13:53:05.232Z,36.28
2022-08-19T13:54:08.318Z,36.24
2022-08-19T13:55:13.335Z,36.37
2022-08-19T13:56:19.501Z,36.33
2022-08-19T13:57:23.223Z,36.20
2022-08-19T13:58:25.320Z,36.46
2022-08-19T13:59:29.550Z,36.50
2022-08-19T14:00:39.646Z,36.42
2022-08-19T14:01:42.568Z,36.35
2022-08-19T14:02:46.154Z,36.49
2022-08-19T14:03:48.605Z,36.63
2022-08-19T14:04:51.092Z,36.82
2022-08-19T14:05:53.251Z,36.67
2022-08-19T14:06:56.105Z,36.66
2022-08-19T14:07:58.782Z,36.88
2022-08-19T14:09:01.084Z,36.58
2022-08-19T14:10:06.380Z,36.81
2022-08-19T14:11:09.620Z,36.89
2022-08-19T14:12:11.769Z,36.84
2022-08-19T14:13:20.070Z,36.97
2022-08-19T14:14:22.630Z,36.84
2022-08-19T14:15:26.174Z,36.87
2022-08-19T14:16:28.787Z,36.93
2022-08-19T14:17:31.115Z,37.02
2022-08-19T14:18:33.177Z,37.17
2022-08-19T14:19:35.336Z,37.25
2022-08-19T14:20:38.137Z,37.37
2022-08-19T14:21:41.727Z,37.60
2022-08-19T14:22:44.673Z,37.59
2022-08-19T14:23:47.266Z,37.53
2022-08-19T14:24:51.308Z,37.51
2022-08-19T14:25:53.562Z,37.50
2022-08-19T14:26:55.829Z,37.53
2022-08-19T14:27:59.009Z,37.53
2022-08-19T14:29:02.562Z,37.66
2022-08-19T14:30:06.090Z,37.74
2022-08-19T14:31:08.780Z,37.74
2022-08-19T14:32:11.116Z,37.75
2022-08-19T14:33:19.321Z,37.76
2022-08-19T14:34:21.434Z,37.79
2022-08-19T14:35:24.190Z,38.13
2022-08-19T14:36:39.055Z,37.91
2022-08-19T14:37:45.207Z,38.14
2022-08-19T14:38:49.854Z,38.00
2022-08-19T14:39:52.394Z,38.24
2022-08-19T14:40:54.766Z,38.30
2022-08-19T14:41:57.706Z,38.33
2022-08-19T14:43:04.986Z,38.19
2022-08-19T14:44:07.431Z,38.56
2022-08-19T14:45:10.939Z,38.15
2022-08-19T14:46:15.101Z,38.23
2022-08-19T14:47:19.414Z,38.58
2022-08-19T14:48:22.904Z,38.51
2022-08-19T14:49:34.940Z,38.58
2022-08-19T14:50:41.620Z,38.38
2022-08-19T14:51:43.801Z,38.60
2022-08-19T14:52:48.926Z,38.50
2022-08-19T14:53:51.858Z,38.51
2022-08-19T14:54:54.654Z,38.53
2022-08-19T14:55:56.727Z,38.48
2022-08-19T14:57:00.021Z,38.73
2022-08-19T14:58:02.411Z,38.86
2022-08-19T14:59:07.477Z,38.79
2022-08-19T15:00:14.459Z,38.76
2022-08-19T15:01:16.687Z,38.55
2022-08-19T15:02:34.003Z,38.72
2022-08-19T15:03:38.035Z,38.71
2022-08-19T15:04:40.426Z,38.67
2022-08-19T15:05:42.562Z,38.79
2022-08-19T15:06:44.811Z,38.77
2022-08-19T15:07:46.987Z,38.75
2022-08-19T15:08:49.656Z,38.66
2022-08-19T15:09:52.010Z,38.68
2022-08-19T15:10:54.966Z,38.74
2022-08-19T15:11:58.921Z,39.11
2022-08-19T15:13:01.796Z,38.97
2022-08-19T15:14:04.689Z,39.15
2022-08-19T15:15:08.169Z,39.06
2022-08-19T15:16:18.262Z,39.32
2022-08-19T15:17:20.552Z,39.22
2022-08-19T15:18:22.915Z,39.28
2022-08-19T15:19:24.994Z,39.16